General Aviation Weather

Text Reports

Enter one or more of the following location identifiers separated by a space:

Zip Code, Four-Character ICAO or Three-Character IATA airport codes.

METAR - Aviation Routine Weather Report
K3I2 - Point Pleasant, West Virginia
Updated at 8:15 AM GMT on April 25, 2014 (4:15 AM EDT):
METAR K3I2 250815Z AUTO 00000KT 10SM CLR 08/01 A2977 RMK AO2
TAF - Terminal Area Forecast
K3I2 - Point Pleasant, West Virginia
Updated at 8:15 AM GMT on April 25, 2014 (4:15 AM EDT):
No TAF is currently available for this location.
Decoded:
No decoded TAF is available.
PIREP - Pilot Weather Report
K3I2 - Point Pleasant, West Virginia
Updated at 8:15 AM GMT on April 25, 2014 (4:15 AM EDT):
No PIREP is currently available for this location.
AIRMET - Airmens Meteorological Information
K3I2 - Point Pleasant, West Virginia
Updated at 8:15 AM GMT on April 25, 2014 (4:15 AM EDT):
No AIRMET is currently available for this location.
SIGMET - Significant Meteorological Information
K3I2 - Point Pleasant, West Virginia
Updated at 8:15 AM GMT on April 25, 2014 (4:15 AM EDT):
No SIGMET is currently available for this location.
NOTAM - Notice to Airmen
K3I2 - Point Pleasant, West Virginia
Updated at 8:15 AM GMT on April 25, 2014 (4:15 AM EDT):
No NOTAM is currently available for this location.
Forecast Area
K3I2 - Point Pleasant, West Virginia
Updated at 8:15 AM GMT on April 25, 2014 (4:15 AM EDT):
No NOTAM is currently available for this location.
Aviation Weather Maps